Eastern Sierra Regional Airport
KBIH : now visible

Airfield :











YOU CAN JOIN US ON...

 
LOGIN :

Register | Disclaimer

   EN    FR    IT 

 









Legend :    VFR   Marginal VFR   IFR   Intensive IFR   Very Intensive IFR
Visi :
Ceiling :
>= 8 km
>= 3000ft
5 to 8 km
1000 to 3000 ft
1500m to 5 km
500 to 1000 ft
800 to 1500m
200 to 500 ft
< 800m
< 200 ft
Symbols :   Thunderstorms  Fog  Heavy snow  Heavy precipitations  Wind > 20 kt






- Airport Elevation : 4124 ft


KBIH - Eastern Sierra Regional

CURRENT METAR :
  • 090656Z AUTO 25005KT 10SM CLR 23/13 A3007 RMK AO2 SLP122 T02330128

EXPIRED METARs :
  • 090556Z AUTO 30006KT 10SM BKN110 25/12 A3007 RMK AO2 SLP121 T02500122 10344 20250 51011
  • 090456Z AUTO 29007KT 10SM BKN120 27/12 A3006 RMK AO2 SLP120 T02670117

TAF KBIH
Valid from the 09 at 06:00 until the 10 at 06:00 UTC


090520Z 0906/1006 VRB06KT P6SM SCT120 BKN150
FM091800 17015G22KT P6SM VCTS SCT100CB BKN150
TEMPO 0920/0924 VRB20G30KT 4SM -TSRA BKN100CB
FM100400 32010KT P6SM SCT100 BKN150
KZOA FIR / North America



MET'MAP, your aeronautical weather chart ! - Copyright ORBIFLY December 2007 - Disclaimer

ORBIFLY MET'MAP TEAM :

Programming & Development : Alexandra Zaïnal
Original concept : Baudouin d'Aumeries
Technical & hardware support : Manuel Goepfert
Assistance : Marc-Olivier Méhu




SOURCES & CREDITS :

   NOAA       Earth
Advisory